Time;durP1;ratioP1;P1;durP2;ratioP2;P2;SDS_P1;SDS_P2;PMS_P1;PMS_P2;Temp;Humidity;BMP_temperature;BMP_pressure;BME280_temperature;BME280_humidity;BME280_pressure;Samples;Min_cycle;Max_cycle;Signal;HPM_P1;HPM_P2
2022/02/19 00:01:40;;;;;;;7.20;2.27;;;10.30;91.50;;;;;;10471987;28;20251;-82
2022/02/19 00:06:42;;;;;;;4.20;2.13;;;10.20;91.20;;;;;;10473335;28;20288;-81
2022/02/19 00:11:53;;;;;;;6.60;2.63;;;10.20;92.10;;;;;;10435890;28;20217;-82
2022/02/19 00:16:55;;;;;;;4.87;2.70;;;10.20;92.80;;;;;;10448207;28;20201;-80
2022/02/19 00:21:57;;;;;;;5.80;2.50;;;10.30;93.20;;;;;;10465124;28;20282;-80
2022/02/19 00:27:01;;;;;;;4.90;2.10;;;10.20;93.50;;;;;;10451835;28;20214;-81
2022/02/19 00:32:04;;;;;;;3.40;2.30;;;10.20;89.50;;;;;;10448705;28;20242;-81
2022/02/19 00:37:06;;;;;;;5.97;2.73;;;10.10;90.70;;;;;;10439678;28;20205;-81
2022/02/19 00:42:10;;;;;;;6.53;2.50;;;10.20;89.00;;;;;;10447000;28;20288;-81
2022/02/19 00:47:12;;;;;;;3.20;2.90;;;10.20;92.30;;;;;;10445136;28;20209;-81
2022/02/19 00:52:15;;;;;;;8.00;2.73;;;10.20;91.80;;;;;;10450617;28;20229;-82
2022/02/19 00:57:20;;;;;;;5.20;2.23;;;10.20;88.60;;;;;;10466475;28;20213;-81
2022/02/19 01:02:24;;;;;;;3.23;2.03;;;10.10;87.60;;;;;;10432921;28;20607;-81
2022/02/19 01:07:34;;;;;;;4.90;2.70;;;10.10;87.20;;;;;;10459009;28;20669;-82
2022/02/19 01:12:38;;;;;;;5.53;2.43;;;10.00;87.30;;;;;;10464049;28;20644;-81
2022/02/19 01:17:40;;;;;;;5.10;2.00;;;10.00;86.90;;;;;;10445040;28;20583;-82
2022/02/19 01:22:42;;;;;;;6.07;3.07;;;10.00;86.20;;;;;;10440822;28;20233;-82
2022/02/19 01:27:46;;;;;;;3.10;2.00;;;10.00;90.60;;;;;;10444147;28;20653;-81
2022/02/19 01:32:49;;;;;;;7.77;2.90;;;10.10;84.90;;;;;;10453426;28;20217;-80
2022/02/19 01:37:52;;;;;;;5.73;2.90;;;10.10;85.50;;;;;;10433874;28;20205;-82
2022/02/19 01:42:56;;;;;;;5.87;2.70;;;10.00;89.30;;;;;;10440313;28;20708;-82
2022/02/19 01:48:01;;;;;;;3.50;2.10;;;10.00;87.40;;;;;;10460262;28;20262;-81
2022/02/19 01:53:04;;;;;;;3.00;2.00;;;10.00;89.70;;;;;;10455474;28;20267;-83
2022/02/19 01:58:18;;;;;;;4.07;1.80;;;10.10;86.10;;;;;;10437764;28;20288;-82
2022/02/19 02:03:39;;;;;;;4.40;2.30;;;10.00;85.70;;;;;;10429321;28;20197;-82
2022/02/19 02:08:55;;;;;;;3.77;2.53;;;10.00;85.00;;;;;;10437833;28;20262;-82
2022/02/19 02:14:01;;;;;;;4.40;2.37;;;10.00;85.50;;;;;;10417095;28;20189;-82
2022/02/19 02:19:30;;;;;;;5.87;2.53;;;9.90;82.30;;;;;;10452710;23;20229;-87
2022/02/19 02:24:42;;;;;;;4.53;2.50;;;9.90;84.30;;;;;;10412103;28;20193;-86
2022/02/19 02:29:51;;;;;;;6.30;2.87;;;9.80;85.00;;;;;;10404906;28;20205;-88
2022/02/19 02:35:00;;;;;;;6.90;2.40;;;9.80;84.70;;;;;;10394782;28;20201;-88
2022/02/19 02:40:12;;;;;;;6.57;2.33;;;9.80;84.60;;;;;;10398203;28;20276;-88
2022/02/19 02:45:14;;;;;;;6.57;2.77;;;9.80;86.50;;;;;;10392255;28;20241;-88
2022/02/19 02:50:20;;;;;;;3.37;1.87;;;9.80;86.00;;;;;;10396248;28;20229;-88
2022/02/19 02:55:24;;;;;;;4.33;2.17;;;9.80;83.60;;;;;;10410591;28;20233;-89
2022/02/19 03:00:26;;;;;;;6.60;2.87;;;9.70;84.10;;;;;;10409761;28;20236;-89
2022/02/19 03:05:29;;;;;;;5.90;2.57;;;9.70;85.30;;;;;;10415051;28;20193;-88
2022/02/19 03:10:33;;;;;;;5.67;2.83;;;9.70;84.00;;;;;;10391284;28;20217;-88
2022/02/19 03:15:35;;;;;;;3.30;2.50;;;9.60;86.60;;;;;;10421788;28;20256;-88
2022/02/19 03:20:39;;;;;;;7.77;2.63;;;9.60;83.90;;;;;;10381384;28;20592;-88
2022/02/19 03:25:42;;;;;;;4.20;2.33;;;9.60;87.50;;;;;;10416851;28;20297;-88
2022/02/19 03:30:48;;;;;;;5.30;3.00;;;9.50;84.90;;;;;;10406058;28;20224;-88
2022/02/19 03:36:26;;;;;;;6.10;2.43;;;9.60;83.50;;;;;;10408763;28;20206;-88
2022/02/19 03:41:30;;;;;;;4.00;2.33;;;9.40;82.00;;;;;;10410975;28;20313;-88
2022/02/19 03:46:36;;;;;;;6.40;2.47;;;9.40;82.10;;;;;;10374102;28;20575;-88
2022/02/19 03:51:54;;;;;;;4.53;2.73;;;9.40;82.30;;;;;;10408539;28;20217;-88
2022/02/19 03:56:58;;;;;;;5.13;2.50;;;9.30;86.90;;;;;;10396731;28;20202;-88
2022/02/19 04:02:00;;;;;;;7.63;2.53;;;9.40;82.60;;;;;;10397987;28;20253;-87
2022/02/19 04:07:05;;;;;;;5.40;2.33;;;9.40;83.00;;;;;;10415435;28;20222;-87
2022/02/19 04:12:32;;;;;;;4.33;2.47;;;9.20;83.10;;;;;;10407370;28;20222;-88
2022/02/19 04:17:36;;;;;;;4.10;2.30;;;9.20;86.20;;;;;;10405441;28;20205;-87
2022/02/19 04:22:41;;;;;;;4.60;2.33;;;9.10;83.90;;;;;;10391730;28;20230;-87
2022/02/19 04:27:46;;;;;;;3.30;2.10;;;9.10;84.30;;;;;;10402376;28;20665;-86
2022/02/19 04:32:48;;;;;;;6.70;3.00;;;9.10;84.30;;;;;;10401940;28;20214;-86
2022/02/19 04:37:51;;;;;;;8.17;2.93;;;9.00;83.20;;;;;;10399609;28;20229;-86
2022/02/19 04:42:54;;;;;;;5.43;2.43;;;9.10;80.60;;;;;;10384654;28;20226;-87
2022/02/19 04:48:03;;;;;;;3.33;2.23;;;8.90;80.90;;;;;;10393901;28;20214;-86
2022/02/19 04:53:07;;;;;;;8.93;2.70;;;8.90;81.20;;;;;;10401934;28;20563;-86
2022/02/19 04:58:14;;;;;;;4.77;2.47;;;8.80;84.10;;;;;;10399568;28;20198;-86
2022/02/19 05:03:16;;;;;;;6.40;2.47;;;8.80;83.80;;;;;;10401877;28;20720;-87
2022/02/19 05:08:27;;;;;;;4.70;2.40;;;8.80;86.70;;;;;;10397708;28;20213;-86
2022/02/19 05:13:31;;;;;;;3.93;2.00;;;8.80;86.00;;;;;;10395118;28;20222;-86
2022/02/19 05:18:33;;;;;;;7.43;2.93;;;8.80;81.30;;;;;;10400340;28;20210;-86
2022/02/19 05:23:36;;;;;;;4.73;2.87;;;8.70;83.90;;;;;;10398816;28;20689;-87
2022/02/19 05:28:41;;;;;;;7.57;2.70;;;8.70;86.60;;;;;;10396828;28;20256;-86
2022/02/19 05:33:44;;;;;;;8.03;2.50;;;8.70;84.90;;;;;;10382123;28;20194;-86
2022/02/19 05:38:48;;;;;;;9.13;2.50;;;8.70;84.00;;;;;;10394162;28;20198;-86
2022/02/19 05:43:51;;;;;;;7.70;2.87;;;8.70;85.90;;;;;;10390270;28;20233;-86
2022/02/19 05:48:57;;;;;;;5.27;2.30;;;8.70;84.90;;;;;;10397342;28;20287;-87
2022/02/19 05:54:19;;;;;;;6.83;2.60;;;8.70;87.60;;;;;;10407046;28;20256;-86
2022/02/19 05:59:28;;;;;;;8.80;2.50;;;8.70;87.00;;;;;;10401067;28;20231;-87
2022/02/19 06:04:31;;;;;;;6.10;1.90;;;8.70;86.70;;;;;;10400620;28;20212;-86
2022/02/19 06:09:33;;;;;;;6.37;2.53;;;8.70;85.30;;;;;;10391875;28;20653;-86
2022/02/19 06:14:40;;;;;;;4.70;2.57;;;8.70;85.30;;;;;;10414068;28;20654;-86
2022/02/19 06:19:44;;;;;;;5.60;2.83;;;8.60;88.40;;;;;;10402355;28;20329;-86
2022/02/19 06:24:48;;;;;;;9.20;2.27;;;8.60;87.90;;;;;;10409933;28;20548;-86
2022/02/19 06:29:52;;;;;;;7.83;3.13;;;8.50;87.80;;;;;;10385040;28;20602;-86
2022/02/19 06:35:01;;;;;;;9.23;2.30;;;8.50;90.00;;;;;;10380267;28;20202;-86
2022/02/19 06:40:06;;;;;;;5.83;2.23;;;8.50;90.20;;;;;;10386672;28;20249;-87
2022/02/19 06:45:24;;;;;;;3.33;2.50;;;8.40;87.30;;;;;;10407486;28;20204;-88
2022/02/19 06:50:34;;;;;;;5.33;2.50;;;8.30;85.70;;;;;;10414938;28;20241;-87
2022/02/19 06:55:43;;;;;;;6.20;2.30;;;8.40;89.50;;;;;;10396696;28;20242;-88
2022/02/19 07:00:52;;;;;;;6.20;2.57;;;8.40;88.60;;;;;;10413493;28;20213;-88
2022/02/19 07:06:00;;;;;;;8.30;2.53;;;8.40;89.60;;;;;;10397086;28;20248;-88
2022/02/19 07:11:25;;;;;;;5.80;2.40;;;8.40;90.50;;;;;;10411667;28;20243;-88
2022/02/19 07:16:32;;;;;;;3.57;1.83;;;8.40;88.90;;;;;;10400159;28;20190;-88
2022/02/19 07:21:37;;;;;;;5.67;2.30;;;8.40;89.40;;;;;;10418965;28;20272;-88
2022/02/19 07:26:46;;;;;;;4.43;2.00;;;8.40;86.30;;;;;;10396369;28;20193;-88
2022/02/19 07:31:51;;;;;;;7.40;2.50;;;8.40;90.10;;;;;;10390361;28;20690;-88
2022/02/19 07:36:55;;;;;;;5.70;2.37;;;8.40;88.90;;;;;;10395170;28;20218;-88
2022/02/19 07:41:57;;;;;;;4.20;2.20;;;8.40;90.40;;;;;;10403268;28;20689;-90
2022/02/19 07:47:24;;;;;;;8.50;2.23;;;8.40;90.30;;;;;;10419022;28;20197;-88
2022/02/19 07:58:23;;;;;;;5.67;2.50;;;8.50;90.10;;;;;;10412866;28;20193;-92
2022/02/19 08:03:31;;;;;;;9.60;2.10;;;8.60;90.10;;;;;;10416710;28;20673;-89
2022/02/19 08:08:38;;;;;;;6.37;2.60;;;8.70;87.00;;;;;;10391334;28;20202;-88
2022/02/19 08:13:48;;;;;;;4.30;2.87;;;8.70;88.00;;;;;;10404046;28;20198;-89
2022/02/19 08:18:53;;;;;;;10.93;5.30;;;8.60;84.40;;;;;;10417591;28;20225;-89
2022/02/19 08:23:55;;;;;;;6.40;3.00;;;8.60;88.60;;;;;;10397067;28;20304;-89
2022/02/19 08:28:57;;;;;;;6.43;2.50;;;8.70;90.20;;;;;;10399833;28;20564;-89
2022/02/19 08:34:01;;;;;;;4.23;2.20;;;8.80;89.90;;;;;;10396456;28;20202;-89
2022/02/19 08:39:04;;;;;;;6.47;2.50;;;8.80;86.70;;;;;;10394896;28;20221;-88
2022/02/19 08:44:07;;;;;;;6.80;2.23;;;8.80;84.90;;;;;;10417469;28;20235;-86
2022/02/19 08:49:11;;;;;;;3.57;2.10;;;8.70;85.10;;;;;;10415438;28;20748;-87
2022/02/19 08:54:14;;;;;;;8.67;2.37;;;8.70;88.80;;;;;;10400255;28;20205;-87
2022/02/19 08:59:16;;;;;;;5.30;1.97;;;8.80;86.70;;;;;;10399430;28;20236;-87
2022/02/19 09:04:20;;;;;;;5.47;2.30;;;8.90;86.80;;;;;;10399583;28;20218;-87
2022/02/19 09:09:22;;;;;;;4.10;2.27;;;9.00;84.10;;;;;;10400149;28;20240;-87
2022/02/19 09:14:25;;;;;;;5.93;2.73;;;9.10;87.40;;;;;;10399111;28;20281;-87
2022/02/19 09:19:29;;;;;;;7.00;3.07;;;9.30;87.20;;;;;;10400343;28;20328;-88
2022/02/19 09:24:31;;;;;;;5.70;2.73;;;9.30;86.10;;;;;;10404726;28;20222;-88
2022/02/19 09:29:33;;;;;;;4.53;2.23;;;9.30;83.10;;;;;;10391723;28;20720;-88
2022/02/19 09:34:37;;;;;;;4.77;2.90;;;9.40;84.50;;;;;;10395064;28;20695;-88
2022/02/19 09:39:39;;;;;;;3.87;2.37;;;9.50;83.90;;;;;;10424300;28;20221;-88
2022/02/19 09:44:42;;;;;;;4.60;2.30;;;9.50;76.80;;;;;;10413468;28;20649;-88
2022/02/19 09:49:45;;;;;;;5.87;2.73;;;9.50;80.10;;;;;;10397010;28;20225;-87
2022/02/19 09:54:48;;;;;;;5.60;2.63;;;9.60;78.90;;;;;;10395043;28;20201;-88
2022/02/19 09:59:50;;;;;;;7.73;2.40;;;9.60;79.30;;;;;;10411550;28;20686;-87
2022/02/19 10:04:53;;;;;;;7.50;3.40;;;9.70;78.40;;;;;;10401856;28;20317;-87
2022/02/19 10:09:59;;;;;;;3.63;2.40;;;9.70;82.50;;;;;;10400774;28;20256;-84
2022/02/19 10:15:01;;;;;;;3.20;2.30;;;9.80;80.10;;;;;;10395773;28;20198;-86
2022/02/19 10:20:07;;;;;;;5.00;2.27;;;9.90;80.20;;;;;;10409715;28;20250;-87
2022/02/19 10:25:12;;;;;;;5.63;3.13;;;9.80;76.20;;;;;;10401604;28;20317;-84
2022/02/19 10:30:16;;;;;;;6.40;2.50;;;9.60;79.00;;;;;;10415691;28;20225;-84
2022/02/19 10:35:21;;;;;;;4.73;2.70;;;9.50;79.00;;;;;;10414971;28;20202;-88
2022/02/19 10:40:32;;;;;;;3.80;2.10;;;9.60;81.20;;;;;;10438959;28;20268;-85
2022/02/19 10:45:36;;;;;;;2.57;2.37;;;9.50;80.00;;;;;;10409842;28;20705;-85
2022/02/19 10:50:39;;;;;;;5.83;2.33;;;9.50;80.00;;;;;;10430315;28;20278;-83
2022/02/19 10:55:42;;;;;;;4.40;2.13;;;9.50;80.10;;;;;;10415611;28;20281;-86
2022/02/19 11:00:45;;;;;;;4.90;2.43;;;9.60;81.60;;;;;;10404110;28;20271;-86
2022/02/19 11:05:50;;;;;;;4.60;2.33;;;9.70;77.90;;;;;;10393591;28;20212;-84
2022/02/19 11:10:54;;;;;;;2.67;2.30;;;9.70;77.90;;;;;;10410930;28;20214;-84
2022/02/19 11:15:56;;;;;;;2.83;1.83;;;9.80;75.30;;;;;;10423268;28;20281;-85
2022/02/19 11:21:02;;;;;;;7.27;2.30;;;9.80;82.20;;;;;;10396284;28;20268;-83
2022/02/19 11:26:05;;;;;;;6.43;2.77;;;9.90;78.20;;;;;;10410176;28;20209;-85
2022/02/19 11:31:09;;;;;;;6.63;2.27;;;10.20;74.90;;;;;;10417118;28;20512;-83
2022/02/19 11:36:12;;;;;;;5.33;2.47;;;10.20;73.70;;;;;;10408232;28;20209;-83
2022/02/19 11:41:16;;;;;;;2.87;1.90;;;10.30;75.20;;;;;;10411794;28;20709;-83
2022/02/19 11:46:35;;;;;;;5.83;1.90;;;10.40;75.90;;;;;;10387363;28;20202;-85
2022/02/19 11:51:39;;;;;;;6.80;2.33;;;10.60;69.20;;;;;;10403732;28;20273;-84
2022/02/19 11:56:43;;;;;;;3.27;2.07;;;10.60;70.10;;;;;;10378584;28;20206;-84
2022/02/19 12:02:05;;;;;;;3.60;2.40;;;10.90;72.90;;;;;;10394526;28;20254;-84
2022/02/19 12:07:15;;;;;;;3.90;1.90;;;10.90;74.20;;;;;;10376533;28;20222;-84
2022/02/19 12:12:17;;;;;;;4.40;2.37;;;11.00;75.30;;;;;;10385173;28;20226;-84
2022/02/19 12:17:20;;;;;;;4.47;2.03;;;11.10;73.30;;;;;;10399862;28;20206;-85
2022/02/19 12:22:35;;;;;;;4.70;2.73;;;11.20;77.50;;;;;;10388197;28;20237;-84
2022/02/19 12:27:38;;;;;;;5.70;2.43;;;11.30;71.10;;;;;;10415627;28;20221;-84
2022/02/19 12:32:47;;;;;;;4.57;1.80;;;11.30;71.30;;;;;;10401116;28;20225;-84
2022/02/19 12:37:53;;;;;;;2.80;1.93;;;11.40;68.90;;;;;;10405824;28;20199;-85
2022/02/19 12:42:55;;;;;;;4.23;1.50;;;11.30;65.80;;;;;;10436753;28;20220;-85
2022/02/19 12:47:58;;;;;;;3.53;1.90;;;11.20;67.00;;;;;;10445782;28;20201;-85
2022/02/19 12:53:03;;;;;;;2.40;1.90;;;11.10;66.10;;;;;;10396362;28;20213;-85
2022/02/19 12:58:05;;;;;;;3.73;2.47;;;10.90;69.60;;;;;;10391087;28;20589;-85
2022/02/19 13:03:07;;;;;;;2.70;2.20;;;10.80;66.80;;;;;;10389596;28;20253;-85
2022/02/19 13:08:11;;;;;;;4.37;1.87;;;10.70;68.30;;;;;;10423390;28;20229;-85
2022/02/19 13:13:17;;;;;;;3.67;1.77;;;10.60;70.00;;;;;;10400889;28;20268;-85
2022/02/19 13:18:19;;;;;;;3.60;1.90;;;10.50;72.00;;;;;;10385456;28;20298;-86
2022/02/19 13:23:33;;;;;;;6.07;2.00;;;10.50;72.80;;;;;;10425244;28;20222;-84
2022/02/19 13:28:37;;;;;;;3.10;1.70;;;10.50;71.80;;;;;;10420934;28;20202;-86
2022/02/19 13:33:39;;;;;;;1.87;1.73;;;10.50;75.40;;;;;;10404337;28;20468;-85
2022/02/19 13:38:42;;;;;;;2.40;1.70;;;10.50;71.20;;;;;;10411675;28;20197;-85
2022/02/19 13:43:45;;;;;;;2.33;1.90;;;10.50;73.00;;;;;;10399514;28;20679;-84
2022/02/19 13:48:51;;;;;;;3.17;1.43;;;10.50;67.80;;;;;;10402691;28;20240;-84
2022/02/19 13:53:54;;;;;;;2.87;1.60;;;10.40;70.10;;;;;;10403858;28;20265;-85
2022/02/19 13:58:57;;;;;;;1.73;1.63;;;10.50;68.70;;;;;;10433446;28;20577;-85
2022/02/19 14:03:59;;;;;;;2.23;2.03;;;10.40;71.60;;;;;;10432831;28;20219;-85
2022/02/19 14:09:14;;;;;;;3.20;2.00;;;10.40;69.40;;;;;;10397212;28;20272;-85
2022/02/19 14:14:24;;;;;;;3.10;1.70;;;10.40;69.70;;;;;;10410353;28;20206;-84
2022/02/19 14:19:27;;;;;;;4.13;1.60;;;10.40;68.30;;;;;;10428131;22;20737;-81
2022/02/19 14:24:31;;;;;;;3.40;1.90;;;10.50;71.40;;;;;;10460594;28;20252;-80
2022/02/19 14:29:33;;;;;;;2.90;1.90;;;10.50;72.60;;;;;;10466598;28;20267;-81
2022/02/19 14:34:36;;;;;;;2.23;1.63;;;10.50;67.70;;;;;;10430601;28;20300;-80
2022/02/19 14:39:39;;;;;;;2.27;1.80;;;10.50;68.20;;;;;;10445852;28;20217;-80
2022/02/19 14:44:46;;;;;;;3.73;1.93;;;10.50;68.10;;;;;;10447391;28;20220;-80
2022/02/19 14:49:48;;;;;;;2.10;1.40;;;10.50;65.20;;;;;;10420981;28;20559;-80
2022/02/19 14:54:53;;;;;;;2.07;1.90;;;10.40;68.40;;;;;;10442020;28;20276;-81
2022/02/19 14:59:55;;;;;;;2.97;1.50;;;10.40;69.30;;;;;;10422721;28;20228;-81
2022/02/19 15:04:57;;;;;;;2.40;1.53;;;10.40;67.40;;;;;;10434576;28;20279;-80
2022/02/19 15:10:00;;;;;;;3.07;1.30;;;10.40;68.20;;;;;;10446409;28;20217;-81
2022/02/19 15:15:02;;;;;;;1.70;1.60;;;10.40;67.70;;;;;;10428330;28;20665;-80
2022/02/19 15:20:06;;;;;;;3.17;1.63;;;10.40;66.70;;;;;;10446878;28;20233;-80
2022/02/19 15:25:13;;;;;;;5.40;2.47;;;10.40;66.40;;;;;;10420044;28;20252;-80
2022/02/19 15:30:15;;;;;;;2.77;1.70;;;10.40;67.70;;;;;;10440419;28;20225;-82
2022/02/19 15:35:17;;;;;;;3.47;2.50;;;10.40;66.80;;;;;;10401878;28;20721;-81
2022/02/19 15:40:22;;;;;;;4.13;2.20;;;10.40;67.50;;;;;;10429613;28;20321;-82
2022/02/19 15:45:24;;;;;;;4.27;2.67;;;10.40;69.20;;;;;;10441840;28;20221;-81
2022/02/19 15:50:26;;;;;;;5.80;2.30;;;10.30;67.60;;;;;;10452112;28;20218;-81
2022/02/19 15:55:30;;;;;;;5.07;2.13;;;10.30;72.50;;;;;;10440072;28;20828;-80
2022/02/19 16:00:32;;;;;;;3.17;1.63;;;10.40;68.90;;;;;;10457339;28;20225;-81
2022/02/19 16:05:34;;;;;;;2.57;2.17;;;10.40;71.90;;;;;;10439894;28;20304;-80
2022/02/19 16:10:38;;;;;;;4.83;1.90;;;10.40;74.10;;;;;;10454074;28;20335;-82
2022/02/19 16:15:40;;;;;;;4.40;2.10;;;10.30;75.10;;;;;;10454283;28;20201;-81
2022/02/19 16:20:42;;;;;;;2.40;1.93;;;10.30;73.20;;;;;;10430860;28;20716;-81
2022/02/19 16:25:46;;;;;;;2.10;1.73;;;10.20;76.90;;;;;;10410825;28;20635;-81
2022/02/19 16:30:49;;;;;;;2.37;2.17;;;10.20;76.20;;;;;;10399361;28;20317;-83
2022/02/19 16:35:51;;;;;;;4.00;2.40;;;10.20;76.10;;;;;;10429710;28;20255;-83
2022/02/19 16:40:54;;;;;;;3.63;2.17;;;10.20;76.90;;;;;;10452234;28;20716;-83
2022/02/19 16:46:00;;;;;;;3.37;2.10;;;10.10;76.10;;;;;;10424636;28;20236;-81
2022/02/19 16:51:03;;;;;;;4.43;1.93;;;10.10;75.80;;;;;;10459714;28;20224;-81
2022/02/19 16:56:07;;;;;;;1.70;1.60;;;10.00;77.70;;;;;;10441189;28;20221;-81
2022/02/19 17:01:09;;;;;;;3.27;2.13;;;10.00;74.80;;;;;;10390030;28;20768;-83
2022/02/19 17:06:11;;;;;;;3.00;1.80;;;9.90;77.30;;;;;;10407373;28;20249;-80
2022/02/19 17:11:16;;;;;;;2.80;2.30;;;9.80;75.80;;;;;;10394846;28;20221;-80
2022/02/19 17:16:18;;;;;;;3.97;2.27;;;9.80;78.00;;;;;;10381957;28;20206;-80
2022/02/19 17:21:20;;;;;;;7.63;4.00;;;9.70;74.60;;;;;;10394110;28;20270;-80
2022/02/19 17:26:24;;;;;;;4.70;3.37;;;9.60;77.80;;;;;;10435077;28;20244;-79
2022/02/19 17:31:27;;;;;;;2.57;2.33;;;9.50;76.80;;;;;;10430510;28;20224;-79
2022/02/19 17:36:32;;;;;;;2.67;2.43;;;9.40;77.80;;;;;;10429253;28;20658;-79
2022/02/19 17:41:36;;;;;;;4.17;2.97;;;9.40;78.70;;;;;;10413910;28;20661;-80
2022/02/19 17:46:39;;;;;;;3.77;2.50;;;9.20;79.90;;;;;;10392933;28;20309;-79
2022/02/19 17:51:41;;;;;;;7.83;2.60;;;9.10;76.00;;;;;;10415250;28;20224;-79
2022/02/19 17:56:46;;;;;;;6.00;2.33;;;8.90;75.70;;;;;;10428118;28;20193;-80
2022/02/19 18:01:49;;;;;;;5.40;3.47;;;8.60;75.20;;;;;;10413067;28;20247;-79
2022/02/19 18:06:52;;;;;;;4.80;2.77;;;8.40;77.70;;;;;;10450631;28;20229;-80
2022/02/19 18:11:58;;;;;;;8.63;3.70;;;8.10;77.90;;;;;;10442188;28;20217;-80
2022/02/19 18:17:02;;;;;;;7.67;5.70;;;8.00;80.10;;;;;;10432374;28;20288;-80
2022/02/19 18:22:05;;;;;;;4.83;3.40;;;7.80;79.30;;;;;;10407970;28;20255;-81
2022/02/19 18:27:09;;;;;;;8.30;3.20;;;7.80;79.00;;;;;;10411541;28;20205;-81
2022/02/19 18:32:12;;;;;;;7.17;3.90;;;7.80;81.20;;;;;;10438873;28;20213;-81
2022/02/19 18:37:16;;;;;;;4.50;3.33;;;7.90;81.00;;;;;;10422860;28;20201;-80
2022/02/19 18:42:21;;;;;;;3.87;3.47;;;8.00;81.20;;;;;;10423202;28;20616;-81
2022/02/19 18:47:24;;;;;;;5.87;3.43;;;8.10;80.90;;;;;;10458601;28;20266;-81
2022/02/19 18:52:27;;;;;;;7.67;3.80;;;8.10;80.30;;;;;;10458503;28;20224;-81
2022/02/19 18:57:33;;;;;;;5.70;3.20;;;8.20;80.10;;;;;;10416830;28;20204;-80
2022/02/19 19:02:38;;;;;;;6.50;4.43;;;8.20;82.40;;;;;;10442403;28;20220;-81
2022/02/19 19:07:42;;;;;;;6.73;3.97;;;8.20;81.60;;;;;;10439357;28;20197;-80
2022/02/19 19:12:46;;;;;;;5.97;3.80;;;8.20;81.20;;;;;;10418395;28;20225;-79
2022/02/19 19:17:49;;;;;;;6.70;3.83;;;8.20;83.40;;;;;;10406611;28;20299;-79
2022/02/19 19:22:53;;;;;;;5.00;3.20;;;8.30;80.00;;;;;;10427079;28;20221;-81
2022/02/19 19:27:56;;;;;;;11.67;4.37;;;8.20;81.40;;;;;;10463518;28;20320;-80
2022/02/19 19:33:00;;;;;;;6.97;4.40;;;8.30;82.10;;;;;;10447513;28;20678;-81
2022/02/19 19:38:05;;;;;;;6.87;4.60;;;8.30;81.20;;;;;;10460489;28;20193;-81
2022/02/19 19:43:09;;;;;;;6.80;3.80;;;8.30;81.90;;;;;;10452776;28;20213;-81
2022/02/19 19:48:11;;;;;;;4.30;3.27;;;8.40;79.80;;;;;;10460529;28;20201;-80
2022/02/19 19:53:14;;;;;;;3.93;2.60;;;8.40;77.80;;;;;;10458832;28;20242;-80
2022/02/19 19:58:18;;;;;;;7.80;3.40;;;8.40;77.60;;;;;;10462075;28;20193;-80
2022/02/19 20:03:22;;;;;;;3.50;2.47;;;8.40;78.50;;;;;;10442697;28;20225;-81
2022/02/19 20:08:24;;;;;;;4.50;2.70;;;8.40;76.30;;;;;;10461575;28;20209;-80
2022/02/19 20:13:28;;;;;;;7.37;3.67;;;8.30;77.00;;;;;;10443189;28;20219;-80
2022/02/19 20:18:30;;;;;;;5.27;3.40;;;8.30;79.70;;;;;;10462711;28;20227;-81
2022/02/19 20:23:32;;;;;;;3.53;2.13;;;8.30;79.20;;;;;;10442782;28;20225;-81
2022/02/19 20:28:36;;;;;;;5.57;3.00;;;8.40;77.90;;;;;;10421056;28;20205;-81
2022/02/19 20:33:38;;;;;;;3.80;3.17;;;8.50;76.60;;;;;;10428662;28;20304;-80
2022/02/19 20:38:41;;;;;;;5.30;3.20;;;8.40;76.80;;;;;;10430070;28;20243;-81
2022/02/19 20:43:44;;;;;;;4.70;2.70;;;8.30;75.30;;;;;;10439727;28;20225;-81
2022/02/19 20:48:46;;;;;;;3.60;3.27;;;8.30;77.00;;;;;;10451689;28;20201;-81
2022/02/19 20:53:48;;;;;;;5.67;3.07;;;8.20;75.90;;;;;;10439828;28;20218;-81
2022/02/19 20:58:52;;;;;;;4.83;3.20;;;8.20;78.40;;;;;;10435414;28;20201;-80
2022/02/19 21:03:55;;;;;;;5.77;2.70;;;8.20;76.30;;;;;;10462303;28;20229;-80
2022/02/19 21:08:57;;;;;;;3.60;2.63;;;8.30;76.00;;;;;;10428617;28;20205;-80
2022/02/19 21:14:00;;;;;;;5.03;2.97;;;8.30;77.40;;;;;;10433362;28;20252;-80
2022/02/19 21:19:02;;;;;;;5.00;2.70;;;8.20;76.20;;;;;;10432167;28;20622;-80
2022/02/19 21:24:05;;;;;;;3.13;2.40;;;8.20;77.10;;;;;;10434027;28;20271;-80
2022/02/19 21:29:08;;;;;;;3.57;2.70;;;8.30;75.90;;;;;;10460601;28;20630;-80
2022/02/19 21:34:10;;;;;;;3.63;2.17;;;8.20;77.30;;;;;;10460205;28;20666;-80
2022/02/19 21:39:12;;;;;;;2.60;2.40;;;8.20;77.00;;;;;;10442385;28;20231;-80
2022/02/19 21:44:16;;;;;;;3.40;2.27;;;8.20;75.60;;;;;;10455419;28;20299;-80
2022/02/19 21:49:18;;;;;;;2.00;1.80;;;8.10;76.00;;;;;;10461791;28;20711;-81
2022/02/19 21:54:20;;;;;;;5.10;2.53;;;8.10;76.10;;;;;;10444912;28;20554;-81
2022/02/19 21:59:24;;;;;;;6.43;2.40;;;8.20;76.90;;;;;;10444920;28;20239;-81
2022/02/19 22:04:26;;;;;;;5.50;2.57;;;8.10;76.20;;;;;;10463512;28;20887;-80
2022/02/19 22:09:28;;;;;;;5.83;2.63;;;8.20;77.70;;;;;;10439808;28;20296;-80
2022/02/19 22:14:32;;;;;;;3.20;2.47;;;8.10;78.90;;;;;;10454618;28;20712;-79
2022/02/19 22:19:34;;;;;;;6.17;2.67;;;8.20;78.00;;;;;;10456118;28;20217;-79
2022/02/19 22:24:36;;;;;;;3.93;2.43;;;8.20;78.90;;;;;;10431222;28;20241;-78
2022/02/19 22:29:40;;;;;;;6.50;2.40;;;8.20;79.60;;;;;;10443455;28;20220;-79
2022/02/19 22:34:42;;;;;;;3.67;2.27;;;8.20;79.80;;;;;;10456829;28;20204;-79
2022/02/19 22:39:44;;;;;;;3.97;2.07;;;8.30;81.90;;;;;;10438035;28;20772;-79
2022/02/19 22:44:47;;;;;;;10.07;2.70;;;8.30;79.60;;;;;;10456455;28;20714;-78
2022/02/19 22:49:49;;;;;;;4.27;2.20;;;8.30;78.00;;;;;;10456106;28;20224;-78
2022/02/19 22:54:51;;;;;;;3.30;2.57;;;8.30;79.10;;;;;;10457167;28;20201;-78
2022/02/19 22:59:55;;;;;;;5.23;2.50;;;8.30;79.90;;;;;;10456965;28;20220;-80
2022/02/19 23:10:26;;;;;;;3.77;2.47;;;8.30;79.10;;;;;;10414681;28;20596;-79
2022/02/19 23:15:29;;;;;;;6.30;2.73;;;8.30;79.10;;;;;;10460670;28;20284;-79
2022/02/19 23:20:31;;;;;;;4.37;2.03;;;8.40;80.50;;;;;;10466029;28;20647;-79
2022/02/19 23:25:34;;;;;;;3.87;2.40;;;8.40;77.40;;;;;;10446435;28;20213;-79
2022/02/19 23:30:37;;;;;;;4.57;2.63;;;8.40;82.30;;;;;;10466301;28;20221;-80
2022/02/19 23:35:39;;;;;;;4.57;2.40;;;8.40;79.40;;;;;;10447646;28;20244;-80
2022/02/19 23:40:43;;;;;;;4.70;2.40;;;8.50;82.90;;;;;;10432285;28;20654;-81
2022/02/19 23:45:46;;;;;;;4.20;2.50;;;8.60;80.80;;;;;;10460940;28;20221;-79
2022/02/19 23:50:48;;;;;;;4.43;1.90;;;8.60;76.80;;;;;;10443663;28;20217;-79
2022/02/19 23:55:50;;;;;;;2.70;2.03;;;8.60;78.50;;;;;;10454326;28;20212;-79
